< < Back
Terminal Aerodrome Forecast


Current Version              Previous Versions:   1  2  3  4  5  6  7  8  9  

Terminal Aerodrome Forecast

052
FTUS44 KBMX 251132
TAFBHM
TAF
KBHM 251132Z 2512/2612 00000KT P6SM SCT250
     FM251700 VRB04KT P6SM FEW070=

Latest METAR

881
SAUS70 KWBC 251700 RRB
MTRBHM
METAR KBHM 251653Z 08004KT 10SM SCT250 34/17 A3008 RMK AO2 SLP175
T03390167


USA.gov is the U.S. government's official web portal to all federal, state and local government web resources and services.